sensor_id;sensor_type;location;lat;lon;timestamp;P1;durP1;ratioP1;P2;durP2;ratioP2
11616;SDS011;5864;52.998;9.068;2023-03-14T00:01:16;6.67;;;3.00;;
11616;SDS011;5864;52.998;9.068;2023-03-14T00:04:04;4.93;;;2.33;;
11616;SDS011;5864;52.998;9.068;2023-03-14T00:06:50;9.03;;;3.03;;
11616;SDS011;5864;52.998;9.068;2023-03-14T00:09:35;4.77;;;2.90;;
11616;SDS011;5864;52.998;9.068;2023-03-14T00:12:22;7.63;;;2.57;;
11616;SDS011;5864;52.998;9.068;2023-03-14T00:15:08;5.63;;;2.90;;
11616;SDS011;5864;52.998;9.068;2023-03-14T00:17:55;5.63;;;3.10;;
11616;SDS011;5864;52.998;9.068;2023-03-14T00:20:41;5.97;;;2.90;;
11616;SDS011;5864;52.998;9.068;2023-03-14T00:23:27;8.13;;;3.00;;
11616;SDS011;5864;52.998;9.068;2023-03-14T00:26:14;5.90;;;3.10;;
11616;SDS011;5864;52.998;9.068;2023-03-14T00:29:02;4.83;;;2.60;;
11616;SDS011;5864;52.998;9.068;2023-03-14T00:31:48;6.47;;;3.13;;
11616;SDS011;5864;52.998;9.068;2023-03-14T00:34:34;8.10;;;3.47;;
11616;SDS011;5864;52.998;9.068;2023-03-14T00:37:20;4.47;;;3.20;;
11616;SDS011;5864;52.998;9.068;2023-03-14T00:40:07;6.27;;;3.20;;
11616;SDS011;5864;52.998;9.068;2023-03-14T00:42:53;3.50;;;2.13;;
11616;SDS011;5864;52.998;9.068;2023-03-14T00:45:41;10.53;;;2.77;;
11616;SDS011;5864;52.998;9.068;2023-03-14T00:48:26;5.83;;;2.20;;
11616;SDS011;5864;52.998;9.068;2023-03-14T00:51:12;5.13;;;2.40;;
11616;SDS011;5864;52.998;9.068;2023-03-14T00:53:59;4.63;;;2.30;;
11616;SDS011;5864;52.998;9.068;2023-03-14T00:56:44;3.77;;;2.70;;
11616;SDS011;5864;52.998;9.068;2023-03-14T00:59:29;6.27;;;2.83;;
11616;SDS011;5864;52.998;9.068;2023-03-14T01:02:18;4.07;;;2.97;;
11616;SDS011;5864;52.998;9.068;2023-03-14T01:05:04;5.37;;;2.93;;
11616;SDS011;5864;52.998;9.068;2023-03-14T01:07:49;6.33;;;3.30;;
11616;SDS011;5864;52.998;9.068;2023-03-14T01:10:37;5.87;;;3.70;;
11616;SDS011;5864;52.998;9.068;2023-03-14T01:13:23;5.60;;;3.40;;
11616;SDS011;5864;52.998;9.068;2023-03-14T01:16:09;5.80;;;3.67;;
11616;SDS011;5864;52.998;9.068;2023-03-14T01:18:57;8.10;;;4.43;;
11616;SDS011;5864;52.998;9.068;2023-03-14T01:21:43;8.27;;;4.00;;
11616;SDS011;5864;52.998;9.068;2023-03-14T01:24:28;7.40;;;4.30;;
11616;SDS011;5864;52.998;9.068;2023-03-14T01:27:14;9.00;;;4.60;;
11616;SDS011;5864;52.998;9.068;2023-03-14T01:30:00;9.27;;;4.47;;
11616;SDS011;5864;52.998;9.068;2023-03-14T01:32:46;8.20;;;4.20;;
11616;SDS011;5864;52.998;9.068;2023-03-14T01:35:33;8.87;;;4.27;;
11616;SDS011;5864;52.998;9.068;2023-03-14T01:38:19;4.93;;;4.03;;
11616;SDS011;5864;52.998;9.068;2023-03-14T01:41:06;8.93;;;4.27;;
11616;SDS011;5864;52.998;9.068;2023-03-14T01:43:52;8.43;;;4.23;;
11616;SDS011;5864;52.998;9.068;2023-03-14T01:46:39;8.77;;;4.33;;
11616;SDS011;5864;52.998;9.068;2023-03-14T01:49:26;7.80;;;4.17;;
11616;SDS011;5864;52.998;9.068;2023-03-14T01:52:16;7.90;;;4.20;;
11616;SDS011;5864;52.998;9.068;2023-03-14T01:55:06;10.60;;;3.87;;
11616;SDS011;5864;52.998;9.068;2023-03-14T01:57:55;8.80;;;4.00;;
11616;SDS011;5864;52.998;9.068;2023-03-14T02:00:44;7.50;;;3.57;;
11616;SDS011;5864;52.998;9.068;2023-03-14T02:03:30;8.10;;;3.80;;
11616;SDS011;5864;52.998;9.068;2023-03-14T02:06:24;7.40;;;3.67;;
11616;SDS011;5864;52.998;9.068;2023-03-14T02:09:16;9.60;;;3.60;;
11616;SDS011;5864;52.998;9.068;2023-03-14T02:12:02;8.37;;;4.20;;
11616;SDS011;5864;52.998;9.068;2023-03-14T02:14:48;6.27;;;3.10;;
11616;SDS011;5864;52.998;9.068;2023-03-14T02:17:34;8.83;;;3.77;;
11616;SDS011;5864;52.998;9.068;2023-03-14T02:20:30;9.07;;;3.73;;
11616;SDS011;5864;52.998;9.068;2023-03-14T02:23:24;6.57;;;3.10;;
11616;SDS011;5864;52.998;9.068;2023-03-14T02:26:19;7.53;;;3.00;;
11616;SDS011;5864;52.998;9.068;2023-03-14T02:29:08;10.43;;;2.83;;
11616;SDS011;5864;52.998;9.068;2023-03-14T02:31:54;9.37;;;3.00;;
11616;SDS011;5864;52.998;9.068;2023-03-14T02:34:41;6.20;;;3.17;;
11616;SDS011;5864;52.998;9.068;2023-03-14T02:37:31;4.53;;;2.80;;
11616;SDS011;5864;52.998;9.068;2023-03-14T02:40:19;9.67;;;2.73;;
11616;SDS011;5864;52.998;9.068;2023-03-14T02:43:05;7.47;;;2.80;;
11616;SDS011;5864;52.998;9.068;2023-03-14T02:45:52;9.50;;;2.83;;
11616;SDS011;5864;52.998;9.068;2023-03-14T02:48:39;8.00;;;2.93;;
11616;SDS011;5864;52.998;9.068;2023-03-14T02:51:28;9.30;;;2.80;;
11616;SDS011;5864;52.998;9.068;2023-03-14T02:54:14;6.97;;;2.50;;
11616;SDS011;5864;52.998;9.068;2023-03-14T02:57:00;7.03;;;2.83;;
11616;SDS011;5864;52.998;9.068;2023-03-14T02:59:47;5.60;;;2.37;;
11616;SDS011;5864;52.998;9.068;2023-03-14T03:02:35;4.87;;;2.63;;
11616;SDS011;5864;52.998;9.068;2023-03-14T03:05:21;5.17;;;2.77;;
11616;SDS011;5864;52.998;9.068;2023-03-14T03:08:07;5.87;;;2.73;;
11616;SDS011;5864;52.998;9.068;2023-03-14T03:10:53;5.30;;;2.67;;
11616;SDS011;5864;52.998;9.068;2023-03-14T03:13:38;6.67;;;2.70;;
11616;SDS011;5864;52.998;9.068;2023-03-14T03:16:24;4.30;;;2.30;;
11616;SDS011;5864;52.998;9.068;2023-03-14T03:19:12;6.90;;;3.20;;
11616;SDS011;5864;52.998;9.068;2023-03-14T03:21:57;9.33;;;3.37;;
11616;SDS011;5864;52.998;9.068;2023-03-14T03:24:43;9.27;;;2.83;;
11616;SDS011;5864;52.998;9.068;2023-03-14T03:27:29;5.90;;;2.63;;
11616;SDS011;5864;52.998;9.068;2023-03-14T03:30:15;8.33;;;3.33;;
11616;SDS011;5864;52.998;9.068;2023-03-14T03:33:02;10.33;;;3.40;;
11616;SDS011;5864;52.998;9.068;2023-03-14T03:35:49;6.73;;;3.07;;
11616;SDS011;5864;52.998;9.068;2023-03-14T03:38:36;6.30;;;3.07;;
11616;SDS011;5864;52.998;9.068;2023-03-14T03:41:21;6.77;;;3.03;;
11616;SDS011;5864;52.998;9.068;2023-03-14T03:44:06;6.00;;;3.40;;
11616;SDS011;5864;52.998;9.068;2023-03-14T03:46:52;8.87;;;3.37;;
11616;SDS011;5864;52.998;9.068;2023-03-14T03:49:38;6.80;;;3.80;;
11616;SDS011;5864;52.998;9.068;2023-03-14T03:52:25;8.47;;;3.60;;
11616;SDS011;5864;52.998;9.068;2023-03-14T03:55:11;13.10;;;4.00;;
11616;SDS011;5864;52.998;9.068;2023-03-14T03:57:57;6.23;;;3.43;;
11616;SDS011;5864;52.998;9.068;2023-03-14T04:00:43;4.97;;;3.53;;
11616;SDS011;5864;52.998;9.068;2023-03-14T04:03:29;7.90;;;4.00;;
11616;SDS011;5864;52.998;9.068;2023-03-14T04:06:15;9.07;;;4.27;;
11616;SDS011;5864;52.998;9.068;2023-03-14T04:09:01;7.23;;;4.03;;
11616;SDS011;5864;52.998;9.068;2023-03-14T04:11:47;5.10;;;3.70;;
11616;SDS011;5864;52.998;9.068;2023-03-14T04:14:33;6.50;;;4.10;;
11616;SDS011;5864;52.998;9.068;2023-03-14T04:17:19;6.13;;;4.23;;
11616;SDS011;5864;52.998;9.068;2023-03-14T04:20:05;9.10;;;4.50;;
11616;SDS011;5864;52.998;9.068;2023-03-14T04:22:54;7.13;;;4.00;;
11616;SDS011;5864;52.998;9.068;2023-03-14T04:25:41;7.40;;;4.07;;
11616;SDS011;5864;52.998;9.068;2023-03-14T04:28:27;8.77;;;4.00;;
11616;SDS011;5864;52.998;9.068;2023-03-14T04:31:14;8.63;;;4.27;;
11616;SDS011;5864;52.998;9.068;2023-03-14T04:34:02;7.83;;;3.67;;
11616;SDS011;5864;52.998;9.068;2023-03-14T04:36:47;7.40;;;3.53;;
11616;SDS011;5864;52.998;9.068;2023-03-14T04:39:33;6.50;;;3.30;;
11616;SDS011;5864;52.998;9.068;2023-03-14T04:42:20;8.43;;;3.77;;
11616;SDS011;5864;52.998;9.068;2023-03-14T04:45:05;7.80;;;3.47;;
11616;SDS011;5864;52.998;9.068;2023-03-14T04:47:52;9.47;;;4.37;;
11616;SDS011;5864;52.998;9.068;2023-03-14T04:50:38;6.83;;;3.33;;
11616;SDS011;5864;52.998;9.068;2023-03-14T04:53:24;8.23;;;3.60;;
11616;SDS011;5864;52.998;9.068;2023-03-14T04:56:09;3.83;;;3.20;;
11616;SDS011;5864;52.998;9.068;2023-03-14T04:58:57;7.70;;;3.30;;
11616;SDS011;5864;52.998;9.068;2023-03-14T05:01:43;6.43;;;3.53;;
11616;SDS011;5864;52.998;9.068;2023-03-14T05:04:29;7.47;;;3.37;;
11616;SDS011;5864;52.998;9.068;2023-03-14T05:07:17;4.73;;;3.10;;
11616;SDS011;5864;52.998;9.068;2023-03-14T05:10:03;5.30;;;2.90;;
11616;SDS011;5864;52.998;9.068;2023-03-14T05:12:49;3.70;;;2.87;;
11616;SDS011;5864;52.998;9.068;2023-03-14T05:15:37;10.67;;;4.30;;
11616;SDS011;5864;52.998;9.068;2023-03-14T05:18:22;5.97;;;3.30;;
11616;SDS011;5864;52.998;9.068;2023-03-14T05:21:08;6.67;;;3.30;;
11616;SDS011;5864;52.998;9.068;2023-03-14T05:23:53;6.83;;;3.40;;
11616;SDS011;5864;52.998;9.068;2023-03-14T05:26:39;6.57;;;3.03;;
11616;SDS011;5864;52.998;9.068;2023-03-14T05:29:24;9.23;;;3.53;;
11616;SDS011;5864;52.998;9.068;2023-03-14T05:32:12;5.40;;;2.90;;
11616;SDS011;5864;52.998;9.068;2023-03-14T05:34:57;9.10;;;3.73;;
11616;SDS011;5864;52.998;9.068;2023-03-14T05:37:43;6.87;;;3.00;;
11616;SDS011;5864;52.998;9.068;2023-03-14T05:40:29;5.97;;;3.07;;
11616;SDS011;5864;52.998;9.068;2023-03-14T05:43:14;6.53;;;3.17;;
11616;SDS011;5864;52.998;9.068;2023-03-14T05:46:00;6.90;;;3.30;;
11616;SDS011;5864;52.998;9.068;2023-03-14T05:48:48;7.47;;;3.47;;
11616;SDS011;5864;52.998;9.068;2023-03-14T05:51:33;8.23;;;2.80;;
11616;SDS011;5864;52.998;9.068;2023-03-14T05:54:19;4.87;;;2.87;;
11616;SDS011;5864;52.998;9.068;2023-03-14T05:57:04;2.97;;;2.10;;
11616;SDS011;5864;52.998;9.068;2023-03-14T05:59:51;5.67;;;2.50;;
11616;SDS011;5864;52.998;9.068;2023-03-14T06:02:37;3.63;;;2.27;;
11616;SDS011;5864;52.998;9.068;2023-03-14T06:05:25;3.20;;;1.50;;
11616;SDS011;5864;52.998;9.068;2023-03-14T06:08:10;4.40;;;1.93;;
11616;SDS011;5864;52.998;9.068;2023-03-14T06:10:56;4.50;;;1.47;;
11616;SDS011;5864;52.998;9.068;2023-03-14T06:13:42;1.80;;;1.30;;
11616;SDS011;5864;52.998;9.068;2023-03-14T06:16:28;2.80;;;1.27;;
11616;SDS011;5864;52.998;9.068;2023-03-14T06:19:13;2.30;;;1.17;;
11616;SDS011;5864;52.998;9.068;2023-03-14T06:22:01;1.60;;;1.30;;
11616;SDS011;5864;52.998;9.068;2023-03-14T06:24:46;2.93;;;1.30;;
11616;SDS011;5864;52.998;9.068;2023-03-14T06:27:32;2.73;;;1.83;;
11616;SDS011;5864;52.998;9.068;2023-03-14T06:30:17;2.37;;;1.43;;
11616;SDS011;5864;52.998;9.068;2023-03-14T06:33:03;2.43;;;1.80;;
11616;SDS011;5864;52.998;9.068;2023-03-14T06:35:48;4.57;;;1.90;;
11616;SDS011;5864;52.998;9.068;2023-03-14T06:38:35;4.60;;;2.67;;
11616;SDS011;5864;52.998;9.068;2023-03-14T06:41:21;3.80;;;2.60;;
11616;SDS011;5864;52.998;9.068;2023-03-14T06:44:09;3.60;;;2.93;;
11616;SDS011;5864;52.998;9.068;2023-03-14T06:46:55;5.47;;;3.40;;
11616;SDS011;5864;52.998;9.068;2023-03-14T06:49:41;5.43;;;3.73;;
11616;SDS011;5864;52.998;9.068;2023-03-14T06:52:27;5.60;;;3.63;;
11616;SDS011;5864;52.998;9.068;2023-03-14T06:55:15;6.07;;;3.73;;
11616;SDS011;5864;52.998;9.068;2023-03-14T06:58:01;5.97;;;3.87;;
11616;SDS011;5864;52.998;9.068;2023-03-14T07:00:47;4.83;;;3.33;;
11616;SDS011;5864;52.998;9.068;2023-03-14T07:03:32;6.93;;;3.30;;
11616;SDS011;5864;52.998;9.068;2023-03-14T07:06:19;6.33;;;3.20;;
11616;SDS011;5864;52.998;9.068;2023-03-14T07:09:04;10.43;;;3.50;;
11616;SDS011;5864;52.998;9.068;2023-03-14T07:11:51;8.33;;;4.07;;
11616;SDS011;5864;52.998;9.068;2023-03-14T07:14:37;8.80;;;3.53;;
11616;SDS011;5864;52.998;9.068;2023-03-14T07:17:22;5.40;;;2.90;;
11616;SDS011;5864;52.998;9.068;2023-03-14T07:20:09;8.50;;;3.20;;
11616;SDS011;5864;52.998;9.068;2023-03-14T07:22:55;10.40;;;3.37;;
11616;SDS011;5864;52.998;9.068;2023-03-14T07:25:40;6.70;;;3.20;;
11616;SDS011;5864;52.998;9.068;2023-03-14T07:28:27;8.43;;;3.87;;
11616;SDS011;5864;52.998;9.068;2023-03-14T07:31:13;7.33;;;4.00;;
11616;SDS011;5864;52.998;9.068;2023-03-14T07:33:59;6.87;;;3.33;;
11616;SDS011;5864;52.998;9.068;2023-03-14T07:36:44;8.67;;;3.80;;
11616;SDS011;5864;52.998;9.068;2023-03-14T07:39:30;9.37;;;5.03;;
11616;SDS011;5864;52.998;9.068;2023-03-14T07:42:16;11.23;;;4.70;;
11616;SDS011;5864;52.998;9.068;2023-03-14T07:45:04;10.23;;;4.60;;
11616;SDS011;5864;52.998;9.068;2023-03-14T07:47:50;10.57;;;4.83;;
11616;SDS011;5864;52.998;9.068;2023-03-14T07:50:35;8.53;;;3.70;;
11616;SDS011;5864;52.998;9.068;2023-03-14T07:53:21;6.93;;;3.37;;
11616;SDS011;5864;52.998;9.068;2023-03-14T07:56:07;7.00;;;3.70;;
11616;SDS011;5864;52.998;9.068;2023-03-14T07:58:53;8.40;;;3.60;;
11616;SDS011;5864;52.998;9.068;2023-03-14T08:01:40;7.73;;;3.47;;
11616;SDS011;5864;52.998;9.068;2023-03-14T08:04:25;8.87;;;4.27;;
11616;SDS011;5864;52.998;9.068;2023-03-14T08:07:11;8.10;;;4.27;;
11616;SDS011;5864;52.998;9.068;2023-03-14T08:09:57;6.10;;;3.37;;
11616;SDS011;5864;52.998;9.068;2023-03-14T08:12:42;10.00;;;4.17;;
11616;SDS011;5864;52.998;9.068;2023-03-14T08:15:28;7.93;;;3.87;;
11616;SDS011;5864;52.998;9.068;2023-03-14T08:18:16;7.17;;;3.70;;
11616;SDS011;5864;52.998;9.068;2023-03-14T08:21:02;6.57;;;3.70;;
11616;SDS011;5864;52.998;9.068;2023-03-14T08:23:48;5.67;;;3.50;;
11616;SDS011;5864;52.998;9.068;2023-03-14T08:26:33;7.17;;;3.60;;
11616;SDS011;5864;52.998;9.068;2023-03-14T08:29:19;6.30;;;3.43;;
11616;SDS011;5864;52.998;9.068;2023-03-14T08:32:04;6.40;;;3.50;;
11616;SDS011;5864;52.998;9.068;2023-03-14T08:34:52;5.87;;;3.17;;
11616;SDS011;5864;52.998;9.068;2023-03-14T08:37:37;10.73;;;3.97;;
11616;SDS011;5864;52.998;9.068;2023-03-14T08:40:23;6.00;;;2.73;;
11616;SDS011;5864;52.998;9.068;2023-03-14T08:43:09;5.33;;;3.00;;
11616;SDS011;5864;52.998;9.068;2023-03-14T08:45:56;3.83;;;2.73;;
11616;SDS011;5864;52.998;9.068;2023-03-14T08:48:43;10.27;;;2.80;;
11616;SDS011;5864;52.998;9.068;2023-03-14T08:51:30;6.50;;;2.73;;
11616;SDS011;5864;52.998;9.068;2023-03-14T08:54:15;6.70;;;2.27;;
11616;SDS011;5864;52.998;9.068;2023-03-14T08:57:01;4.93;;;2.23;;
11616;SDS011;5864;52.998;9.068;2023-03-14T08:59:47;6.23;;;2.20;;
11616;SDS011;5864;52.998;9.068;2023-03-14T09:02:32;4.90;;;2.50;;
11616;SDS011;5864;52.998;9.068;2023-03-14T09:05:18;3.77;;;2.30;;
11616;SDS011;5864;52.998;9.068;2023-03-14T09:08:05;4.23;;;2.30;;
11616;SDS011;5864;52.998;9.068;2023-03-14T09:10:51;4.60;;;2.60;;
11616;SDS011;5864;52.998;9.068;2023-03-14T09:13:37;6.07;;;2.47;;
11616;SDS011;5864;52.998;9.068;2023-03-14T09:16:23;7.07;;;2.33;;
11616;SDS011;5864;52.998;9.068;2023-03-14T09:19:09;4.67;;;2.00;;
11616;SDS011;5864;52.998;9.068;2023-03-14T09:21:55;3.30;;;1.87;;
11616;SDS011;5864;52.998;9.068;2023-03-14T09:24:42;3.37;;;1.80;;
11616;SDS011;5864;52.998;9.068;2023-03-14T09:27:28;2.73;;;1.60;;
11616;SDS011;5864;52.998;9.068;2023-03-14T09:30:14;1.77;;;1.40;;
11616;SDS011;5864;52.998;9.068;2023-03-14T09:32:59;4.67;;;1.60;;
11616;SDS011;5864;52.998;9.068;2023-03-14T09:35:45;4.73;;;2.17;;
11616;SDS011;5864;52.998;9.068;2023-03-14T09:38:31;3.13;;;1.87;;
11616;SDS011;5864;52.998;9.068;2023-03-14T09:41:21;6.63;;;1.17;;
11616;SDS011;5864;52.998;9.068;2023-03-14T09:44:11;2.13;;;0.87;;
11616;SDS011;5864;52.998;9.068;2023-03-14T09:47:00;1.00;;;0.90;;
11616;SDS011;5864;52.998;9.068;2023-03-14T09:49:50;2.03;;;1.10;;
11616;SDS011;5864;52.998;9.068;2023-03-14T09:52:36;2.60;;;1.50;;
11616;SDS011;5864;52.998;9.068;2023-03-14T09:55:25;2.83;;;1.30;;
11616;SDS011;5864;52.998;9.068;2023-03-14T09:58:13;2.13;;;1.30;;
11616;SDS011;5864;52.998;9.068;2023-03-14T10:01:03;3.27;;;1.10;;
11616;SDS011;5864;52.998;9.068;2023-03-14T10:03:50;2.13;;;1.30;;
11616;SDS011;5864;52.998;9.068;2023-03-14T10:06:39;1.37;;;1.03;;
11616;SDS011;5864;52.998;9.068;2023-03-14T10:09:25;3.33;;;1.30;;
11616;SDS011;5864;52.998;9.068;2023-03-14T10:12:11;2.50;;;1.10;;
11616;SDS011;5864;52.998;9.068;2023-03-14T10:15:00;4.70;;;1.57;;
11616;SDS011;5864;52.998;9.068;2023-03-14T10:17:48;2.70;;;1.53;;
11616;SDS011;5864;52.998;9.068;2023-03-14T10:20:36;2.60;;;1.10;;
11616;SDS011;5864;52.998;9.068;2023-03-14T10:23:24;4.63;;;1.30;;
11616;SDS011;5864;52.998;9.068;2023-03-14T10:26:14;0.80;;;0.80;;
11616;SDS011;5864;52.998;9.068;2023-03-14T10:29:02;0.60;;;0.60;;
11616;SDS011;5864;52.998;9.068;2023-03-14T10:31:54;0.60;;;0.60;;
11616;SDS011;5864;52.998;9.068;2023-03-14T10:34:42;0.70;;;0.70;;
11616;SDS011;5864;52.998;9.068;2023-03-14T10:37:28;0.63;;;0.63;;
11616;SDS011;5864;52.998;9.068;2023-03-14T10:40:13;1.07;;;0.60;;
11616;SDS011;5864;52.998;9.068;2023-03-14T10:42:59;0.60;;;0.60;;
11616;SDS011;5864;52.998;9.068;2023-03-14T10:45:52;0.60;;;0.60;;
11616;SDS011;5864;52.998;9.068;2023-03-14T10:48:42;1.17;;;0.60;;
11616;SDS011;5864;52.998;9.068;2023-03-14T10:51:29;0.70;;;0.70;;
11616;SDS011;5864;52.998;9.068;2023-03-14T10:54:19;0.60;;;0.60;;
11616;SDS011;5864;52.998;9.068;2023-03-14T10:57:05;0.60;;;0.60;;
11616;SDS011;5864;52.998;9.068;2023-03-14T10:59:51;1.63;;;0.53;;
11616;SDS011;5864;52.998;9.068;2023-03-14T11:02:42;0.60;;;0.60;;
11616;SDS011;5864;52.998;9.068;2023-03-14T11:05:45;0.70;;;0.60;;
11616;SDS011;5864;52.998;9.068;2023-03-14T11:08:37;0.60;;;0.60;;
11616;SDS011;5864;52.998;9.068;2023-03-14T11:11:30;0.70;;;0.70;;
11616;SDS011;5864;52.998;9.068;2023-03-14T11:14:18;1.67;;;0.90;;
11616;SDS011;5864;52.998;9.068;2023-03-14T11:17:15;2.83;;;0.97;;
11616;SDS011;5864;52.998;9.068;2023-03-14T11:20:10;0.70;;;0.70;;
11616;SDS011;5864;52.998;9.068;2023-03-14T11:23:11;1.33;;;1.00;;
11616;SDS011;5864;52.998;9.068;2023-03-14T11:26:00;3.30;;;0.90;;
11616;SDS011;5864;52.998;9.068;2023-03-14T11:28:55;2.37;;;0.83;;
11616;SDS011;5864;52.998;9.068;2023-03-14T11:31:43;2.37;;;1.20;;
11616;SDS011;5864;52.998;9.068;2023-03-14T11:34:32;3.47;;;0.80;;
11616;SDS011;5864;52.998;9.068;2023-03-14T11:37:26;4.23;;;0.93;;
11616;SDS011;5864;52.998;9.068;2023-03-14T11:43:09;3.67;;;1.30;;
11616;SDS011;5864;52.998;9.068;2023-03-14T11:46:01;2.50;;;1.27;;
11616;SDS011;5864;52.998;9.068;2023-03-14T11:48:53;3.67;;;1.17;;
11616;SDS011;5864;52.998;9.068;2023-03-14T11:51:46;4.03;;;1.23;;
11616;SDS011;5864;52.998;9.068;2023-03-14T11:54:35;3.97;;;1.40;;
11616;SDS011;5864;52.998;9.068;2023-03-14T11:57:30;5.00;;;1.30;;
11616;SDS011;5864;52.998;9.068;2023-03-14T12:00:17;3.70;;;1.70;;
11616;SDS011;5864;52.998;9.068;2023-03-14T12:03:06;3.83;;;1.30;;
11616;SDS011;5864;52.998;9.068;2023-03-14T12:06:02;4.50;;;1.57;;
11616;SDS011;5864;52.998;9.068;2023-03-14T12:08:54;4.97;;;1.57;;
11616;SDS011;5864;52.998;9.068;2023-03-14T12:11:42;6.70;;;1.63;;
11616;SDS011;5864;52.998;9.068;2023-03-14T12:14:34;6.90;;;1.70;;
11616;SDS011;5864;52.998;9.068;2023-03-14T12:17:23;6.67;;;1.63;;
11616;SDS011;5864;52.998;9.068;2023-03-14T12:20:15;7.00;;;2.33;;
11616;SDS011;5864;52.998;9.068;2023-03-14T12:23:03;4.63;;;1.77;;
11616;SDS011;5864;52.998;9.068;2023-03-14T12:26:05;9.83;;;2.03;;
11616;SDS011;5864;52.998;9.068;2023-03-14T12:29:11;7.50;;;1.80;;
11616;SDS011;5864;52.998;9.068;2023-03-14T12:32:09;15.07;;;2.20;;
11616;SDS011;5864;52.998;9.068;2023-03-14T12:35:30;10.47;;;2.73;;
11616;SDS011;5864;52.998;9.068;2023-03-14T12:38:22;7.67;;;1.70;;
11616;SDS011;5864;52.998;9.068;2023-03-14T12:41:14;8.63;;;2.57;;
11616;SDS011;5864;52.998;9.068;2023-03-14T12:50:35;14.87;;;3.10;;
11616;SDS011;5864;52.998;9.068;2023-03-14T12:53:44;12.60;;;2.87;;
11616;SDS011;5864;52.998;9.068;2023-03-14T12:57:05;11.30;;;2.57;;
11616;SDS011;5864;52.998;9.068;2023-03-14T12:59:59;16.00;;;3.10;;
11616;SDS011;5864;52.998;9.068;2023-03-14T13:02:49;16.93;;;3.30;;
11616;SDS011;5864;52.998;9.068;2023-03-14T13:05:35;14.17;;;3.23;;
11616;SDS011;5864;52.998;9.068;2023-03-14T13:08:34;11.73;;;2.93;;
11616;SDS011;5864;52.998;9.068;2023-03-14T13:11:22;14.23;;;3.30;;
11616;SDS011;5864;52.998;9.068;2023-03-14T13:14:08;14.10;;;2.50;;
11616;SDS011;5864;52.998;9.068;2023-03-14T13:16:55;8.47;;;2.50;;
11616;SDS011;5864;52.998;9.068;2023-03-14T13:19:45;13.87;;;2.93;;
11616;SDS011;5864;52.998;9.068;2023-03-14T13:22:37;6.30;;;1.83;;
11616;SDS011;5864;52.998;9.068;2023-03-14T13:25:23;11.30;;;2.60;;
11616;SDS011;5864;52.998;9.068;2023-03-14T13:28:08;7.57;;;2.47;;
11616;SDS011;5864;52.998;9.068;2023-03-14T13:30:56;7.30;;;2.37;;
11616;SDS011;5864;52.998;9.068;2023-03-14T13:33:43;8.23;;;2.40;;
11616;SDS011;5864;52.998;9.068;2023-03-14T13:36:30;10.47;;;2.23;;
11616;SDS011;5864;52.998;9.068;2023-03-14T13:39:18;10.00;;;2.43;;
11616;SDS011;5864;52.998;9.068;2023-03-14T13:42:10;10.37;;;2.20;;
11616;SDS011;5864;52.998;9.068;2023-03-14T13:45:00;6.80;;;2.50;;
11616;SDS011;5864;52.998;9.068;2023-03-14T13:47:46;8.60;;;2.30;;
11616;SDS011;5864;52.998;9.068;2023-03-14T13:50:34;9.40;;;2.07;;
11616;SDS011;5864;52.998;9.068;2023-03-14T13:53:22;7.17;;;2.20;;
11616;SDS011;5864;52.998;9.068;2023-03-14T13:56:08;5.47;;;2.23;;
11616;SDS011;5864;52.998;9.068;2023-03-14T13:58:55;6.37;;;2.70;;
11616;SDS011;5864;52.998;9.068;2023-03-14T14:01:41;7.47;;;2.33;;
11616;SDS011;5864;52.998;9.068;2023-03-14T14:04:27;10.40;;;2.30;;
11616;SDS011;5864;52.998;9.068;2023-03-14T14:07:17;6.73;;;1.80;;
11616;SDS011;5864;52.998;9.068;2023-03-14T14:10:04;7.17;;;2.27;;
11616;SDS011;5864;52.998;9.068;2023-03-14T14:12:52;6.87;;;1.87;;
11616;SDS011;5864;52.998;9.068;2023-03-14T14:15:43;9.73;;;2.30;;
11616;SDS011;5864;52.998;9.068;2023-03-14T14:18:31;11.97;;;2.23;;
11616;SDS011;5864;52.998;9.068;2023-03-14T14:21:20;8.53;;;2.27;;
11616;SDS011;5864;52.998;9.068;2023-03-14T14:24:07;7.80;;;2.50;;
11616;SDS011;5864;52.998;9.068;2023-03-14T14:26:59;5.63;;;1.93;;
11616;SDS011;5864;52.998;9.068;2023-03-14T14:29:55;3.17;;;1.83;;
11616;SDS011;5864;52.998;9.068;2023-03-14T14:32:44;6.07;;;1.60;;
11616;SDS011;5864;52.998;9.068;2023-03-14T14:35:32;4.47;;;1.93;;
11616;SDS011;5864;52.998;9.068;2023-03-14T14:38:19;5.77;;;1.97;;
11616;SDS011;5864;52.998;9.068;2023-03-14T14:41:05;9.57;;;1.80;;
11616;SDS011;5864;52.998;9.068;2023-03-14T14:43:57;8.67;;;2.27;;
11616;SDS011;5864;52.998;9.068;2023-03-14T14:46:44;6.00;;;1.93;;
11616;SDS011;5864;52.998;9.068;2023-03-14T14:49:31;7.83;;;2.33;;
11616;SDS011;5864;52.998;9.068;2023-03-14T14:52:19;7.13;;;1.70;;
11616;SDS011;5864;52.998;9.068;2023-03-14T14:55:12;8.30;;;2.10;;
11616;SDS011;5864;52.998;9.068;2023-03-14T14:58:11;8.67;;;2.00;;
11616;SDS011;5864;52.998;9.068;2023-03-14T15:01:02;8.63;;;2.50;;
11616;SDS011;5864;52.998;9.068;2023-03-14T15:03:50;9.87;;;2.03;;
11616;SDS011;5864;52.998;9.068;2023-03-14T15:06:37;6.00;;;2.03;;
11616;SDS011;5864;52.998;9.068;2023-03-14T15:09:22;5.40;;;2.27;;
11616;SDS011;5864;52.998;9.068;2023-03-14T15:12:09;10.23;;;2.30;;
11616;SDS011;5864;52.998;9.068;2023-03-14T15:14:55;4.97;;;1.67;;
11616;SDS011;5864;52.998;9.068;2023-03-14T15:17:43;6.70;;;1.90;;
11616;SDS011;5864;52.998;9.068;2023-03-14T15:20:28;4.53;;;1.50;;
11616;SDS011;5864;52.998;9.068;2023-03-14T15:23:14;9.33;;;1.97;;
11616;SDS011;5864;52.998;9.068;2023-03-14T15:26:01;5.07;;;1.70;;
11616;SDS011;5864;52.998;9.068;2023-03-14T15:28:47;5.57;;;2.00;;
11616;SDS011;5864;52.998;9.068;2023-03-14T15:31:33;2.07;;;1.40;;
11616;SDS011;5864;52.998;9.068;2023-03-14T15:34:20;5.97;;;1.57;;
11616;SDS011;5864;52.998;9.068;2023-03-14T15:37:08;9.00;;;2.40;;
11616;SDS011;5864;52.998;9.068;2023-03-14T15:39:56;7.93;;;1.90;;
11616;SDS011;5864;52.998;9.068;2023-03-14T15:42:42;8.70;;;2.10;;
11616;SDS011;5864;52.998;9.068;2023-03-14T15:45:27;6.20;;;1.90;;
11616;SDS011;5864;52.998;9.068;2023-03-14T15:48:15;7.60;;;2.03;;
11616;SDS011;5864;52.998;9.068;2023-03-14T15:51:03;10.53;;;2.30;;
11616;SDS011;5864;52.998;9.068;2023-03-14T15:53:48;4.47;;;1.80;;
11616;SDS011;5864;52.998;9.068;2023-03-14T15:56:35;7.00;;;2.10;;
11616;SDS011;5864;52.998;9.068;2023-03-14T15:59:21;5.17;;;1.83;;
11616;SDS011;5864;52.998;9.068;2023-03-14T16:02:08;8.97;;;2.50;;
11616;SDS011;5864;52.998;9.068;2023-03-14T16:04:54;8.10;;;2.40;;
11616;SDS011;5864;52.998;9.068;2023-03-14T16:07:41;6.33;;;1.93;;
11616;SDS011;5864;52.998;9.068;2023-03-14T16:10:27;8.57;;;2.10;;
11616;SDS011;5864;52.998;9.068;2023-03-14T16:13:12;10.33;;;1.97;;
11616;SDS011;5864;52.998;9.068;2023-03-14T16:15:59;5.23;;;1.80;;
11616;SDS011;5864;52.998;9.068;2023-03-14T16:18:45;7.40;;;2.10;;
11616;SDS011;5864;52.998;9.068;2023-03-14T16:21:31;9.73;;;2.47;;
11616;SDS011;5864;52.998;9.068;2023-03-14T16:24:18;7.67;;;1.70;;
11616;SDS011;5864;52.998;9.068;2023-03-14T16:27:04;7.63;;;1.90;;
11616;SDS011;5864;52.998;9.068;2023-03-14T16:29:50;7.57;;;1.90;;
11616;SDS011;5864;52.998;9.068;2023-03-14T16:32:35;5.10;;;1.50;;
11616;SDS011;5864;52.998;9.068;2023-03-14T16:35:22;5.03;;;1.83;;
11616;SDS011;5864;52.998;9.068;2023-03-14T16:38:08;5.37;;;1.57;;
11616;SDS011;5864;52.998;9.068;2023-03-14T16:40:59;8.33;;;1.73;;
11616;SDS011;5864;52.998;9.068;2023-03-14T16:43:46;6.10;;;1.50;;
11616;SDS011;5864;52.998;9.068;2023-03-14T16:46:34;7.50;;;1.67;;
11616;SDS011;5864;52.998;9.068;2023-03-14T16:49:20;7.80;;;2.20;;
11616;SDS011;5864;52.998;9.068;2023-03-14T16:52:06;4.10;;;2.20;;
11616;SDS011;5864;52.998;9.068;2023-03-14T16:54:51;8.87;;;2.30;;
11616;SDS011;5864;52.998;9.068;2023-03-14T16:57:38;5.97;;;1.83;;
11616;SDS011;5864;52.998;9.068;2023-03-14T17:00:24;7.00;;;2.83;;
11616;SDS011;5864;52.998;9.068;2023-03-14T17:03:10;4.20;;;1.73;;
11616;SDS011;5864;52.998;9.068;2023-03-14T17:05:56;6.23;;;2.07;;
11616;SDS011;5864;52.998;9.068;2023-03-14T17:08:41;10.80;;;2.00;;
11616;SDS011;5864;52.998;9.068;2023-03-14T17:11:27;6.73;;;1.60;;
11616;SDS011;5864;52.998;9.068;2023-03-14T17:14:15;4.93;;;1.80;;